Albuquerque, NM (87108)

6:54 PM MDT on July 24, 2016 (GMT -0600)
Nob Hill | | Change Station

Elev 5243 ft 35.07 °N, 106.60 °W | Updated 45 seconds ago

Overcast
Overcast
84.9 °F
Feels Like 83 °F
N
3.6
Wind Variable Wind from NNW
Gusts 4.9 mph

Today
High -- | Low -- °F
--% Chance of Precip.
Yesterday
High -- | Low -- °F
Precip. -- in
Pressure 29.83 in
Visibility 9.0 miles
Clouds Few 6000 ft
Mostly Cloudy 11000 ft
Mostly Cloudy 16000 ft
Mostly Cloudy 25000 ft
Heat Index 83 °F
Dew Point 54 °F
Humidity 35%
Rainfall 0.00 in
Snow Depth Not available.
6:10 AM 8:15 PM
Waning Gibbous, 71% visible
METAR KABQ 242352Z 11008KT 9SM -TSRA FEW060CB BKN110CB BKN160 BKN250 30/12 A3012 RMK AO2 PK WND 12026/2254 RAB47 TSB33 SLP102 FRQ LTGICCG SW-NW TS SW-NW MOV E VCSH SW-NW P0001 60001 T03000122 10372 20300 53008
Pressure 29.83 in
Visibility 9.0 miles
Clouds Few 6000 ft
Mostly Cloudy 11000 ft
Mostly Cloudy 16000 ft
Mostly Cloudy 25000 ft
Heat Index 83 °F
Dew Point 54 °F
Humidity 35%
Rainfall 0.00 in
Snow Depth Not available.
6:10 AM 8:15 PM
Waning Gibbous, 71% visible
METAR KABQ 242352Z 11008KT 9SM -TSRA FEW060CB BKN110CB BKN160 BKN250 30/12 A3012 RMK AO2 PK WND 12026/2254 RAB47 TSB33 SLP102 FRQ LTGICCG SW-NW TS SW-NW MOV E VCSH SW-NW P0001 60001 T03000122 10372 20300 53008

10-Day Weather Forecast

Almanac

Astronomy

Jul. 24, 2016 Rise Set
Actual Time
Civil Twilight
Nautical Twilight
Astronomical Twilight
Moon
Length of Visible Light
Length of Day
Tomorrow will be .
, % of the Moon is Illuminated

Today's Extremes

State Highs State Lows

Community

WunderPhotos

Upload Photos

1,927,218 photos uploaded!

WunderBlog® & News

Nearby

Air Quality

  Air Quality AQ Index Pollutant
Not available.

Snow Depth

Station Depth Elevation

Earthquake Activity

City Distance Mag. Time & Date
Minimum magnitude displayed is 2.5.

Coastal Water Temperatures

Place Temperature

Stations

Nearby Weather Stations

Station Location Temp. Windchill Dew Point Humidity Wind Precip. Elev Updated Type
                   

Watches & Warnings

There are currently no watches in effect.